sensor_id;sensor_type;location;lat;lon;timestamp;temperature;humidity
38746;DHT22;24488;0.000;0.000;2022-08-03T00:00:38;23.10;52.90
38746;DHT22;24488;0.000;0.000;2022-08-03T00:03:04;23.10;52.80
38746;DHT22;24488;0.000;0.000;2022-08-03T00:05:30;23.10;52.30
38746;DHT22;24488;0.000;0.000;2022-08-03T00:07:58;23.10;52.70
38746;DHT22;24488;0.000;0.000;2022-08-03T00:10:24;23.10;52.80
38746;DHT22;24488;0.000;0.000;2022-08-03T00:12:49;23.10;52.90
38746;DHT22;24488;0.000;0.000;2022-08-03T00:15:15;23.00;52.30
38746;DHT22;24488;0.000;0.000;2022-08-03T00:17:41;23.00;52.80
38746;DHT22;24488;0.000;0.000;2022-08-03T00:20:06;23.00;52.80
38746;DHT22;24488;0.000;0.000;2022-08-03T00:22:33;23.10;52.70
38746;DHT22;24488;0.000;0.000;2022-08-03T00:24:59;23.00;52.40
38746;DHT22;24488;0.000;0.000;2022-08-03T00:27:25;23.00;52.80
38746;DHT22;24488;0.000;0.000;2022-08-03T00:29:50;23.00;52.80
38746;DHT22;24488;0.000;0.000;2022-08-03T00:32:16;23.00;52.90
38746;DHT22;24488;0.000;0.000;2022-08-03T00:34:41;23.00;52.40
38746;DHT22;24488;0.000;0.000;2022-08-03T00:37:07;23.00;52.90
38746;DHT22;24488;0.000;0.000;2022-08-03T00:39:32;23.00;52.80
38746;DHT22;24488;0.000;0.000;2022-08-03T00:42:00;23.00;52.80
38746;DHT22;24488;0.000;0.000;2022-08-03T00:44:27;23.00;52.80
38746;DHT22;24488;0.000;0.000;2022-08-03T00:46:52;23.00;52.30
38746;DHT22;24488;0.000;0.000;2022-08-03T00:49:18;23.00;52.70
38746;DHT22;24488;0.000;0.000;2022-08-03T00:51:44;23.00;52.80
38746;DHT22;24488;0.000;0.000;2022-08-03T00:54:09;22.90;52.80
38746;DHT22;24488;0.000;0.000;2022-08-03T00:56:35;23.00;52.20
38746;DHT22;24488;0.000;0.000;2022-08-03T00:59:01;23.00;52.70
38746;DHT22;24488;0.000;0.000;2022-08-03T01:01:27;22.90;52.70
38746;DHT22;24488;0.000;0.000;2022-08-03T01:03:53;23.00;52.60
38746;DHT22;24488;0.000;0.000;2022-08-03T01:06:20;23.00;52.10
38746;DHT22;24488;0.000;0.000;2022-08-03T01:11:37;23.00;52.50
38746;DHT22;24488;0.000;0.000;2022-08-03T01:25:33;22.90;52.10
38746;DHT22;24488;0.000;0.000;2022-08-03T01:30:55;23.00;52.50
38746;DHT22;24488;0.000;0.000;2022-08-03T01:33:25;22.90;52.50
38746;DHT22;24488;0.000;0.000;2022-08-03T01:35:57;22.90;52.10
38746;DHT22;24488;0.000;0.000;2022-08-03T01:38:27;22.90;52.60
38746;DHT22;24488;0.000;0.000;2022-08-03T01:40:56;22.90;52.50
38746;DHT22;24488;0.000;0.000;2022-08-03T01:43:26;22.90;52.50
38746;DHT22;24488;0.000;0.000;2022-08-03T01:45:53;22.90;52.00
38746;DHT22;24488;0.000;0.000;2022-08-03T01:48:20;22.90;52.50
38746;DHT22;24488;0.000;0.000;2022-08-03T01:50:46;22.90;52.50
38746;DHT22;24488;0.000;0.000;2022-08-03T01:53:13;22.90;52.50
38746;DHT22;24488;0.000;0.000;2022-08-03T01:55:40;22.90;52.10
38746;DHT22;24488;0.000;0.000;2022-08-03T01:58:06;22.90;52.60
38746;DHT22;24488;0.000;0.000;2022-08-03T02:00:35;22.90;52.50
38746;DHT22;24488;0.000;0.000;2022-08-03T02:03:03;22.90;52.50
38746;DHT22;24488;0.000;0.000;2022-08-03T02:05:30;22.90;52.00
38746;DHT22;24488;0.000;0.000;2022-08-03T02:07:57;22.90;52.50
38746;DHT22;24488;0.000;0.000;2022-08-03T02:10:22;22.90;52.40
38746;DHT22;24488;0.000;0.000;2022-08-03T02:12:48;22.90;52.40
38746;DHT22;24488;0.000;0.000;2022-08-03T02:15:15;22.90;51.90
38746;DHT22;24488;0.000;0.000;2022-08-03T02:17:41;22.90;52.40
38746;DHT22;24488;0.000;0.000;2022-08-03T02:20:08;22.90;52.50
38746;DHT22;24488;0.000;0.000;2022-08-03T02:22:35;22.90;53.10
38746;DHT22;24488;0.000;0.000;2022-08-03T02:25:03;22.90;51.90
38746;DHT22;24488;0.000;0.000;2022-08-03T02:27:29;22.90;52.40
38746;DHT22;24488;0.000;0.000;2022-08-03T02:30:02;22.90;52.20
38746;DHT22;24488;0.000;0.000;2022-08-03T02:32:33;22.90;52.30
38746;DHT22;24488;0.000;0.000;2022-08-03T02:35:01;22.90;51.80
38746;DHT22;24488;0.000;0.000;2022-08-03T02:37:30;22.90;52.90
38746;DHT22;24488;0.000;0.000;2022-08-03T02:39:58;22.90;52.30
38746;DHT22;24488;0.000;0.000;2022-08-03T02:42:27;22.90;52.40
38746;DHT22;24488;0.000;0.000;2022-08-03T02:44:54;22.90;51.90
38746;DHT22;24488;0.000;0.000;2022-08-03T02:47:21;22.90;52.40
38746;DHT22;24488;0.000;0.000;2022-08-03T02:49:47;22.90;52.30
38746;DHT22;24488;0.000;0.000;2022-08-03T02:52:14;22.90;52.30
38746;DHT22;24488;0.000;0.000;2022-08-03T02:54:41;22.80;51.90
38746;DHT22;24488;0.000;0.000;2022-08-03T02:57:07;22.80;52.30
38746;DHT22;24488;0.000;0.000;2022-08-03T02:59:33;22.90;52.80
38746;DHT22;24488;0.000;0.000;2022-08-03T03:02:00;22.80;52.30
38746;DHT22;24488;0.000;0.000;2022-08-03T03:04:27;22.90;52.20
38746;DHT22;24488;0.000;0.000;2022-08-03T03:06:54;22.90;51.80
38746;DHT22;24488;0.000;0.000;2022-08-03T03:09:19;22.80;52.20
38746;DHT22;24488;0.000;0.000;2022-08-03T03:11:45;22.80;52.20
38746;DHT22;24488;0.000;0.000;2022-08-03T03:14:13;22.80;52.20
38746;DHT22;24488;0.000;0.000;2022-08-03T03:16:39;22.90;51.70
38746;DHT22;24488;0.000;0.000;2022-08-03T03:19:06;22.90;52.10
38746;DHT22;24488;0.000;0.000;2022-08-03T03:21:33;22.90;52.10
38746;DHT22;24488;0.000;0.000;2022-08-03T03:23:59;22.80;52.70
38746;DHT22;24488;0.000;0.000;2022-08-03T03:26:26;22.80;51.60
38746;DHT22;24488;0.000;0.000;2022-08-03T03:28:51;22.80;52.20
38746;DHT22;24488;0.000;0.000;2022-08-03T03:31:17;22.80;52.20
38746;DHT22;24488;0.000;0.000;2022-08-03T03:33:42;22.80;52.20
38746;DHT22;24488;0.000;0.000;2022-08-03T03:36:08;22.80;51.70
38746;DHT22;24488;0.000;0.000;2022-08-03T03:38:34;22.80;52.20
38746;DHT22;24488;0.000;0.000;2022-08-03T03:41:00;22.80;52.20
38746;DHT22;24488;0.000;0.000;2022-08-03T03:43:25;22.80;52.20
38746;DHT22;24488;0.000;0.000;2022-08-03T03:45:51;22.80;51.70
38746;DHT22;24488;0.000;0.000;2022-08-03T03:48:18;22.90;52.20
38746;DHT22;24488;0.000;0.000;2022-08-03T03:50:44;22.80;52.10
38746;DHT22;24488;0.000;0.000;2022-08-03T03:53:10;22.80;52.10
38746;DHT22;24488;0.000;0.000;2022-08-03T03:55:36;22.80;51.70
38746;DHT22;24488;0.000;0.000;2022-08-03T03:58:03;22.80;52.20
38746;DHT22;24488;0.000;0.000;2022-08-03T04:00:28;22.80;52.20
38746;DHT22;24488;0.000;0.000;2022-08-03T04:02:54;22.80;52.20
38746;DHT22;24488;0.000;0.000;2022-08-03T04:05:20;22.80;51.70
38746;DHT22;24488;0.000;0.000;2022-08-03T04:08:08;22.80;52.20
38746;DHT22;24488;0.000;0.000;2022-08-03T04:13:54;22.70;52.10
38746;DHT22;24488;0.000;0.000;2022-08-03T04:16:23;22.70;51.70
38746;DHT22;24488;0.000;0.000;2022-08-03T04:18:51;22.40;51.90
38746;DHT22;24488;0.000;0.000;2022-08-03T04:21:21;22.80;52.10
38746;DHT22;24488;0.000;0.000;2022-08-03T04:23:49;22.80;52.10
38746;DHT22;24488;0.000;0.000;2022-08-03T04:26:18;22.80;51.60
38746;DHT22;24488;0.000;0.000;2022-08-03T04:28:46;22.80;52.00
38746;DHT22;24488;0.000;0.000;2022-08-03T04:31:14;22.80;52.00
38746;DHT22;24488;0.000;0.000;2022-08-03T04:33:42;22.70;52.10
38746;DHT22;24488;0.000;0.000;2022-08-03T04:36:09;22.70;51.70
38746;DHT22;24488;0.000;0.000;2022-08-03T04:38:39;22.70;52.10
38746;DHT22;24488;0.000;0.000;2022-08-03T04:41:08;22.70;52.10
38746;DHT22;24488;0.000;0.000;2022-08-03T04:43:34;22.70;52.10
38746;DHT22;24488;0.000;0.000;2022-08-03T04:46:00;22.70;51.50
38746;DHT22;24488;0.000;0.000;2022-08-03T04:48:26;22.80;52.00
38746;DHT22;24488;0.000;0.000;2022-08-03T04:50:52;22.80;51.90
38746;DHT22;24488;0.000;0.000;2022-08-03T04:53:18;22.70;52.00
38746;DHT22;24488;0.000;0.000;2022-08-03T04:55:44;22.70;51.50
38746;DHT22;24488;0.000;0.000;2022-08-03T04:58:09;22.70;51.90
38746;DHT22;24488;0.000;0.000;2022-08-03T05:00:36;22.70;52.00
38746;DHT22;24488;0.000;0.000;2022-08-03T05:03:02;22.60;52.00
38746;DHT22;24488;0.000;0.000;2022-08-03T05:05:28;22.60;51.60
38746;DHT22;24488;0.000;0.000;2022-08-03T05:07:53;22.70;52.10
38746;DHT22;24488;0.000;0.000;2022-08-03T05:10:20;22.60;52.10
38746;DHT22;24488;0.000;0.000;2022-08-03T05:12:46;22.60;52.10
38746;DHT22;24488;0.000;0.000;2022-08-03T05:15:12;22.70;51.60
38746;DHT22;24488;0.000;0.000;2022-08-03T05:17:38;22.70;52.10
38746;DHT22;24488;0.000;0.000;2022-08-03T05:20:04;22.80;52.20
38746;DHT22;24488;0.000;0.000;2022-08-03T05:22:30;22.60;52.20
38746;DHT22;24488;0.000;0.000;2022-08-03T05:24:55;22.60;51.70
38746;DHT22;24488;0.000;0.000;2022-08-03T05:27:21;22.70;52.30
38746;DHT22;24488;0.000;0.000;2022-08-03T05:29:48;22.70;52.20
38746;DHT22;24488;0.000;0.000;2022-08-03T05:32:17;22.60;52.30
38746;DHT22;24488;0.000;0.000;2022-08-03T05:34:42;22.60;52.00
38746;DHT22;24488;0.000;0.000;2022-08-03T05:37:08;22.60;52.50
38746;DHT22;24488;0.000;0.000;2022-08-03T05:39:34;22.60;52.60
38746;DHT22;24488;0.000;0.000;2022-08-03T05:42:00;22.60;52.50
38746;DHT22;24488;0.000;0.000;2022-08-03T05:44:26;22.60;52.60
38746;DHT22;24488;0.000;0.000;2022-08-03T05:46:51;22.60;52.20
38746;DHT22;24488;0.000;0.000;2022-08-03T05:49:18;22.60;52.80
38746;DHT22;24488;0.000;0.000;2022-08-03T05:51:43;22.60;52.90
38746;DHT22;24488;0.000;0.000;2022-08-03T05:54:09;22.50;53.20
38746;DHT22;24488;0.000;0.000;2022-08-03T05:56:35;22.50;53.00
38746;DHT22;24488;0.000;0.000;2022-08-03T05:59:00;22.50;53.50
38746;DHT22;24488;0.000;0.000;2022-08-03T06:01:26;22.50;53.40
38746;DHT22;24488;0.000;0.000;2022-08-03T06:03:51;22.50;53.00
38746;DHT22;24488;0.000;0.000;2022-08-03T06:06:17;22.60;53.50
38746;DHT22;24488;0.000;0.000;2022-08-03T06:08:44;22.50;53.40
38746;DHT22;24488;0.000;0.000;2022-08-03T06:11:10;22.50;53.50
38746;DHT22;24488;0.000;0.000;2022-08-03T06:13:36;22.50;53.30
38746;DHT22;24488;0.000;0.000;2022-08-03T06:16:02;22.60;53.30
38746;DHT22;24488;0.000;0.000;2022-08-03T06:18:28;22.60;53.00
38746;DHT22;24488;0.000;0.000;2022-08-03T06:20:54;22.70;53.10
38746;DHT22;24488;0.000;0.000;2022-08-03T06:23:19;22.60;53.20
38746;DHT22;24488;0.000;0.000;2022-08-03T06:25:45;22.60;53.20
38746;DHT22;24488;0.000;0.000;2022-08-03T06:28:11;22.60;53.20
38746;DHT22;24488;0.000;0.000;2022-08-03T06:30:38;22.60;53.20
38746;DHT22;24488;0.000;0.000;2022-08-03T06:33:04;22.70;53.10
38746;DHT22;24488;0.000;0.000;2022-08-03T06:35:29;22.70;53.00
38746;DHT22;24488;0.000;0.000;2022-08-03T06:37:55;22.70;53.00
38746;DHT22;24488;0.000;0.000;2022-08-03T06:40:22;22.70;52.90
38746;DHT22;24488;0.000;0.000;2022-08-03T06:42:57;22.80;52.90
38746;DHT22;24488;0.000;0.000;2022-08-03T06:45:23;22.80;52.80
38746;DHT22;24488;0.000;0.000;2022-08-03T06:47:58;22.80;52.90
38746;DHT22;24488;0.000;0.000;2022-08-03T06:50:27;22.80;52.80
38746;DHT22;24488;0.000;0.000;2022-08-03T06:52:53;22.80;52.80
38746;DHT22;24488;0.000;0.000;2022-08-03T06:55:19;22.80;53.00
38746;DHT22;24488;0.000;0.000;2022-08-03T06:57:44;22.70;53.00
38746;DHT22;24488;0.000;0.000;2022-08-03T07:00:10;22.70;53.50
38746;DHT22;24488;0.000;0.000;2022-08-03T07:02:36;22.80;52.90
38746;DHT22;24488;0.000;0.000;2022-08-03T07:05:02;22.80;53.00
38746;DHT22;24488;0.000;0.000;2022-08-03T07:07:28;22.70;53.10
38746;DHT22;24488;0.000;0.000;2022-08-03T07:09:54;22.70;53.00
38746;DHT22;24488;0.000;0.000;2022-08-03T07:12:19;22.70;53.00
38746;DHT22;24488;0.000;0.000;2022-08-03T07:14:45;22.80;53.10
38746;DHT22;24488;0.000;0.000;2022-08-03T07:17:10;22.80;53.10
38746;DHT22;24488;0.000;0.000;2022-08-03T07:19:36;22.80;53.00
38746;DHT22;24488;0.000;0.000;2022-08-03T07:22:01;22.80;53.00
38746;DHT22;24488;0.000;0.000;2022-08-03T07:24:28;22.80;53.10
38746;DHT22;24488;0.000;0.000;2022-08-03T07:26:53;22.80;53.00
38746;DHT22;24488;0.000;0.000;2022-08-03T07:29:19;22.80;53.00
38746;DHT22;24488;0.000;0.000;2022-08-03T07:31:44;22.80;53.00
38746;DHT22;24488;0.000;0.000;2022-08-03T07:34:10;22.80;53.00
38746;DHT22;24488;0.000;0.000;2022-08-03T07:36:36;22.80;53.00
38746;DHT22;24488;0.000;0.000;2022-08-03T07:39:02;22.80;52.90
38746;DHT22;24488;0.000;0.000;2022-08-03T07:41:28;22.20;52.60
38746;DHT22;24488;0.000;0.000;2022-08-03T07:43:54;22.80;53.00
38746;DHT22;24488;0.000;0.000;2022-08-03T07:46:19;22.80;52.90
38746;DHT22;24488;0.000;0.000;2022-08-03T07:48:45;22.80;53.00
38746;DHT22;24488;0.000;0.000;2022-08-03T07:51:11;22.80;53.00
38746;DHT22;24488;0.000;0.000;2022-08-03T07:53:36;22.80;52.50
38746;DHT22;24488;0.000;0.000;2022-08-03T07:56:02;22.80;53.10
38746;DHT22;24488;0.000;0.000;2022-08-03T07:58:27;22.80;53.00
38746;DHT22;24488;0.000;0.000;2022-08-03T08:00:53;22.80;53.00
38746;DHT22;24488;0.000;0.000;2022-08-03T08:03:18;22.80;53.00
38746;DHT22;24488;0.000;0.000;2022-08-03T08:05:46;22.80;53.00
38746;DHT22;24488;0.000;0.000;2022-08-03T08:08:12;22.80;53.00
38746;DHT22;24488;0.000;0.000;2022-08-03T08:10:37;22.80;53.00
38746;DHT22;24488;0.000;0.000;2022-08-03T08:13:03;22.80;53.00
38746;DHT22;24488;0.000;0.000;2022-08-03T08:15:29;22.80;53.00
38746;DHT22;24488;0.000;0.000;2022-08-03T08:17:56;22.80;53.00
38746;DHT22;24488;0.000;0.000;2022-08-03T08:20:28;22.80;52.90
38746;DHT22;24488;0.000;0.000;2022-08-03T08:22:55;22.80;53.10
38746;DHT22;24488;0.000;0.000;2022-08-03T08:25:22;22.80;53.10
38746;DHT22;24488;0.000;0.000;2022-08-03T08:27:48;22.80;53.10
38746;DHT22;24488;0.000;0.000;2022-08-03T08:30:15;22.80;53.10
38746;DHT22;24488;0.000;0.000;2022-08-03T08:32:43;22.70;53.10
38746;DHT22;24488;0.000;0.000;2022-08-03T08:35:08;22.80;53.10
38746;DHT22;24488;0.000;0.000;2022-08-03T08:37:35;22.80;53.20
38746;DHT22;24488;0.000;0.000;2022-08-03T08:40:00;22.80;53.20
38746;DHT22;24488;0.000;0.000;2022-08-03T08:42:26;22.80;53.20
38746;DHT22;24488;0.000;0.000;2022-08-03T08:44:51;22.80;53.10
38746;DHT22;24488;0.000;0.000;2022-08-03T08:47:18;22.80;53.10
38746;DHT22;24488;0.000;0.000;2022-08-03T08:49:44;22.90;52.90
38746;DHT22;24488;0.000;0.000;2022-08-03T08:52:11;22.90;52.80
38746;DHT22;24488;0.000;0.000;2022-08-03T08:54:38;22.90;52.80
38746;DHT22;24488;0.000;0.000;2022-08-03T08:57:06;22.90;52.80
38746;DHT22;24488;0.000;0.000;2022-08-03T08:59:32;22.90;52.80
38746;DHT22;24488;0.000;0.000;2022-08-03T09:01:59;23.00;52.60
38746;DHT22;24488;0.000;0.000;2022-08-03T09:04:24;23.00;52.70
38746;DHT22;24488;0.000;0.000;2022-08-03T09:06:51;22.90;53.20
38746;DHT22;24488;0.000;0.000;2022-08-03T09:09:17;22.90;53.40
38746;DHT22;24488;0.000;0.000;2022-08-03T09:11:42;22.90;53.20
38746;DHT22;24488;0.000;0.000;2022-08-03T09:14:08;22.90;53.10
38746;DHT22;24488;0.000;0.000;2022-08-03T09:16:34;22.90;53.00
38746;DHT22;24488;0.000;0.000;2022-08-03T09:19:10;22.90;52.90
38746;DHT22;24488;0.000;0.000;2022-08-03T09:21:38;23.00;52.90
38746;DHT22;24488;0.000;0.000;2022-08-03T09:24:04;23.00;52.90
38746;DHT22;24488;0.000;0.000;2022-08-03T09:26:32;22.90;53.00
38746;DHT22;24488;0.000;0.000;2022-08-03T09:28:59;22.90;52.90
38746;DHT22;24488;0.000;0.000;2022-08-03T09:31:30;22.90;53.00
38746;DHT22;24488;0.000;0.000;2022-08-03T09:34:04;22.90;53.00
38746;DHT22;24488;0.000;0.000;2022-08-03T09:36:41;22.90;53.00
38746;DHT22;24488;0.000;0.000;2022-08-03T09:39:08;22.90;53.10
38746;DHT22;24488;0.000;0.000;2022-08-03T09:41:36;22.90;53.10
38746;DHT22;24488;0.000;0.000;2022-08-03T09:44:05;22.90;53.20
38746;DHT22;24488;0.000;0.000;2022-08-03T09:46:46;22.90;53.10
38746;DHT22;24488;0.000;0.000;2022-08-03T09:49:14;22.90;53.40
38746;DHT22;24488;0.000;0.000;2022-08-03T09:51:40;22.90;53.30
38746;DHT22;24488;0.000;0.000;2022-08-03T09:54:06;22.90;53.40
38746;DHT22;24488;0.000;0.000;2022-08-03T09:56:45;22.90;53.20
38746;DHT22;24488;0.000;0.000;2022-08-03T09:59:12;22.90;53.10
38746;DHT22;24488;0.000;0.000;2022-08-03T10:01:38;23.00;53.10
38746;DHT22;24488;0.000;0.000;2022-08-03T10:04:11;23.00;53.10
38746;DHT22;24488;0.000;0.000;2022-08-03T10:06:39;23.00;53.10
38746;DHT22;24488;0.000;0.000;2022-08-03T10:11:31;23.00;53.10
38746;DHT22;24488;0.000;0.000;2022-08-03T10:14:00;23.00;53.20
38746;DHT22;24488;0.000;0.000;2022-08-03T10:16:31;23.00;53.20
38746;DHT22;24488;0.000;0.000;2022-08-03T10:18:58;23.00;53.10
38746;DHT22;24488;0.000;0.000;2022-08-03T10:21:23;23.00;53.00
38746;DHT22;24488;0.000;0.000;2022-08-03T10:23:50;23.00;53.00
38746;DHT22;24488;0.000;0.000;2022-08-03T10:26:17;23.00;53.10
38746;DHT22;24488;0.000;0.000;2022-08-03T10:28:46;23.00;53.00
38746;DHT22;24488;0.000;0.000;2022-08-03T10:31:14;23.10;52.90
38746;DHT22;24488;0.000;0.000;2022-08-03T10:33:45;23.10;52.70
38746;DHT22;24488;0.000;0.000;2022-08-03T10:36:12;23.10;52.70
38746;DHT22;24488;0.000;0.000;2022-08-03T10:38:40;23.10;52.70
38746;DHT22;24488;0.000;0.000;2022-08-03T10:41:10;23.10;52.70
38746;DHT22;24488;0.000;0.000;2022-08-03T10:43:41;23.10;52.70
38746;DHT22;24488;0.000;0.000;2022-08-03T10:46:11;23.20;52.70
38746;DHT22;24488;0.000;0.000;2022-08-03T10:48:38;23.20;52.70
38746;DHT22;24488;0.000;0.000;2022-08-03T10:51:04;23.20;52.70
38746;DHT22;24488;0.000;0.000;2022-08-03T10:53:39;23.20;52.70
38746;DHT22;24488;0.000;0.000;2022-08-03T10:59:17;23.20;52.60
38746;DHT22;24488;0.000;0.000;2022-08-03T11:01:55;23.20;52.50
38746;DHT22;24488;0.000;0.000;2022-08-03T11:04:21;23.20;52.50
38746;DHT22;24488;0.000;0.000;2022-08-03T11:07:17;23.20;52.50
38746;DHT22;24488;0.000;0.000;2022-08-03T11:09:40;23.20;52.50
38746;DHT22;24488;0.000;0.000;2022-08-03T11:12:23;23.30;52.50
38746;DHT22;24488;0.000;0.000;2022-08-03T11:14:53;23.30;53.00
38746;DHT22;24488;0.000;0.000;2022-08-03T11:17:20;23.30;52.40
38746;DHT22;24488;0.000;0.000;2022-08-03T11:19:50;23.30;52.40
38746;DHT22;24488;0.000;0.000;2022-08-03T11:22:16;23.30;52.40
38746;DHT22;24488;0.000;0.000;2022-08-03T11:43:03;23.40;52.30
38746;DHT22;24488;0.000;0.000;2022-08-03T11:45:30;23.40;52.30
38746;DHT22;24488;0.000;0.000;2022-08-03T11:47:56;23.40;52.30
38746;DHT22;24488;0.000;0.000;2022-08-03T11:50:23;23.40;52.20
38746;DHT22;24488;0.000;0.000;2022-08-03T11:52:49;23.40;52.20
38746;DHT22;24488;0.000;0.000;2022-08-03T11:55:16;23.40;52.20
38746;DHT22;24488;0.000;0.000;2022-08-03T11:57:44;23.40;52.20
38746;DHT22;24488;0.000;0.000;2022-08-03T12:05:31;23.40;52.20
38746;DHT22;24488;0.000;0.000;2022-08-03T12:10:51;23.40;52.20
38746;DHT22;24488;0.000;0.000;2022-08-03T12:13:17;23.40;52.20
38746;DHT22;24488;0.000;0.000;2022-08-03T12:15:49;23.40;52.10
38746;DHT22;24488;0.000;0.000;2022-08-03T12:18:19;23.40;52.10
38746;DHT22;24488;0.000;0.000;2022-08-03T12:20:47;23.40;52.10
38746;DHT22;24488;0.000;0.000;2022-08-03T12:23:17;23.40;52.10
38746;DHT22;24488;0.000;0.000;2022-08-03T12:25:44;23.50;52.20
38746;DHT22;24488;0.000;0.000;2022-08-03T12:28:12;23.50;52.10
38746;DHT22;24488;0.000;0.000;2022-08-03T12:30:41;23.50;52.10
38746;DHT22;24488;0.000;0.000;2022-08-03T12:33:24;23.50;52.10
38746;DHT22;24488;0.000;0.000;2022-08-03T12:36:04;23.50;52.10
38746;DHT22;24488;0.000;0.000;2022-08-03T12:38:31;23.50;52.10
38746;DHT22;24488;0.000;0.000;2022-08-03T12:41:05;23.50;52.10
38746;DHT22;24488;0.000;0.000;2022-08-03T12:43:46;23.50;52.10
38746;DHT22;24488;0.000;0.000;2022-08-03T12:46:14;23.50;52.10
38746;DHT22;24488;0.000;0.000;2022-08-03T12:51:28;23.50;52.10
38746;DHT22;24488;0.000;0.000;2022-08-03T12:53:55;23.50;52.00
38746;DHT22;24488;0.000;0.000;2022-08-03T12:56:22;23.50;52.00
38746;DHT22;24488;0.000;0.000;2022-08-03T12:58:48;23.50;52.60
38746;DHT22;24488;0.000;0.000;2022-08-03T13:01:14;23.50;52.00
38746;DHT22;24488;0.000;0.000;2022-08-03T13:03:41;23.50;52.00
38746;DHT22;24488;0.000;0.000;2022-08-03T13:06:14;23.50;52.00
38746;DHT22;24488;0.000;0.000;2022-08-03T13:08:41;23.60;52.00
38746;DHT22;24488;0.000;0.000;2022-08-03T13:11:23;23.50;51.90
38746;DHT22;24488;0.000;0.000;2022-08-03T13:13:50;23.60;52.00
38746;DHT22;24488;0.000;0.000;2022-08-03T13:16:17;23.50;52.00
38746;DHT22;24488;0.000;0.000;2022-08-03T13:18:43;23.50;52.00
38746;DHT22;24488;0.000;0.000;2022-08-03T13:21:11;23.60;52.00
38746;DHT22;24488;0.000;0.000;2022-08-03T13:23:40;23.50;52.00
38746;DHT22;24488;0.000;0.000;2022-08-03T13:26:07;23.60;52.00
38746;DHT22;24488;0.000;0.000;2022-08-03T13:28:33;23.50;52.00
38746;DHT22;24488;0.000;0.000;2022-08-03T13:30:58;23.60;52.00
38746;DHT22;24488;0.000;0.000;2022-08-03T13:33:25;23.60;52.00
38746;DHT22;24488;0.000;0.000;2022-08-03T13:35:51;23.60;52.00
38746;DHT22;24488;0.000;0.000;2022-08-03T13:38:16;23.60;52.00
38746;DHT22;24488;0.000;0.000;2022-08-03T13:40:42;23.60;52.00
38746;DHT22;24488;0.000;0.000;2022-08-03T13:43:07;23.60;51.90
38746;DHT22;24488;0.000;0.000;2022-08-03T13:45:33;23.60;51.90
38746;DHT22;24488;0.000;0.000;2022-08-03T13:47:59;23.60;51.90
38746;DHT22;24488;0.000;0.000;2022-08-03T13:50:25;23.60;51.90
38746;DHT22;24488;0.000;0.000;2022-08-03T13:52:51;23.60;51.90
38746;DHT22;24488;0.000;0.000;2022-08-03T13:55:16;23.60;52.00
38746;DHT22;24488;0.000;0.000;2022-08-03T13:57:42;23.60;51.90
38746;DHT22;24488;0.000;0.000;2022-08-03T14:00:07;23.60;51.90
38746;DHT22;24488;0.000;0.000;2022-08-03T14:02:34;23.60;51.90
38746;DHT22;24488;0.000;0.000;2022-08-03T14:04:59;23.60;51.90
38746;DHT22;24488;0.000;0.000;2022-08-03T14:07:25;23.60;51.90
38746;DHT22;24488;0.000;0.000;2022-08-03T14:09:50;23.60;51.90
38746;DHT22;24488;0.000;0.000;2022-08-03T14:12:16;23.60;51.90
38746;DHT22;24488;0.000;0.000;2022-08-03T14:14:42;23.60;51.90
38746;DHT22;24488;0.000;0.000;2022-08-03T14:17:07;23.60;51.90
38746;DHT22;24488;0.000;0.000;2022-08-03T14:19:33;23.60;51.90
38746;DHT22;24488;0.000;0.000;2022-08-03T14:21:58;23.60;51.90
38746;DHT22;24488;0.000;0.000;2022-08-03T14:24:24;23.60;51.90
38746;DHT22;24488;0.000;0.000;2022-08-03T14:26:49;23.60;51.90
38746;DHT22;24488;0.000;0.000;2022-08-03T14:29:15;23.60;51.90
38746;DHT22;24488;0.000;0.000;2022-08-03T14:31:40;23.60;51.90
38746;DHT22;24488;0.000;0.000;2022-08-03T14:34:06;23.60;51.90
38746;DHT22;24488;0.000;0.000;2022-08-03T14:36:32;23.60;51.90
38746;DHT22;24488;0.000;0.000;2022-08-03T14:38:57;23.60;51.90
38746;DHT22;24488;0.000;0.000;2022-08-03T14:41:23;23.60;51.90
38746;DHT22;24488;0.000;0.000;2022-08-03T14:43:48;23.60;51.90
38746;DHT22;24488;0.000;0.000;2022-08-03T14:46:14;23.60;51.90
38746;DHT22;24488;0.000;0.000;2022-08-03T14:48:39;23.60;51.90
38746;DHT22;24488;0.000;0.000;2022-08-03T14:51:05;23.60;51.90
38746;DHT22;24488;0.000;0.000;2022-08-03T14:53:31;23.60;51.90
38746;DHT22;24488;0.000;0.000;2022-08-03T14:55:56;23.70;51.90
38746;DHT22;24488;0.000;0.000;2022-08-03T14:58:22;23.60;51.90
38746;DHT22;24488;0.000;0.000;2022-08-03T15:00:50;23.60;51.90
38746;DHT22;24488;0.000;0.000;2022-08-03T15:03:19;23.60;51.90
38746;DHT22;24488;0.000;0.000;2022-08-03T15:05:51;23.60;51.80
38746;DHT22;24488;0.000;0.000;2022-08-03T15:08:18;23.60;51.80
38746;DHT22;24488;0.000;0.000;2022-08-03T15:10:44;23.60;51.90
38746;DHT22;24488;0.000;0.000;2022-08-03T15:13:11;23.60;51.80
38746;DHT22;24488;0.000;0.000;2022-08-03T15:15:36;23.60;51.80
38746;DHT22;24488;0.000;0.000;2022-08-03T15:18:02;23.60;51.80
38746;DHT22;24488;0.000;0.000;2022-08-03T15:20:28;23.70;51.90
38746;DHT22;24488;0.000;0.000;2022-08-03T15:22:53;23.60;51.80
38746;DHT22;24488;0.000;0.000;2022-08-03T15:25:19;23.60;51.90
38746;DHT22;24488;0.000;0.000;2022-08-03T15:27:44;23.60;51.80
38746;DHT22;24488;0.000;0.000;2022-08-03T15:30:10;23.70;51.90
38746;DHT22;24488;0.000;0.000;2022-08-03T15:32:36;23.70;51.90
38746;DHT22;24488;0.000;0.000;2022-08-03T15:35:02;23.70;51.90
38746;DHT22;24488;0.000;0.000;2022-08-03T15:37:28;23.70;51.90
38746;DHT22;24488;0.000;0.000;2022-08-03T15:39:53;23.70;51.90
38746;DHT22;24488;0.000;0.000;2022-08-03T15:42:19;23.70;51.90
38746;DHT22;24488;0.000;0.000;2022-08-03T15:44:44;23.70;51.90
38746;DHT22;24488;0.000;0.000;2022-08-03T15:47:10;23.70;51.90
38746;DHT22;24488;0.000;0.000;2022-08-03T15:49:35;23.70;51.90
38746;DHT22;24488;0.000;0.000;2022-08-03T15:52:01;23.70;51.90
38746;DHT22;24488;0.000;0.000;2022-08-03T15:54:27;23.70;51.90
38746;DHT22;24488;0.000;0.000;2022-08-03T15:56:52;23.70;51.90
38746;DHT22;24488;0.000;0.000;2022-08-03T15:59:18;23.70;51.80
38746;DHT22;24488;0.000;0.000;2022-08-03T16:01:44;23.70;51.80
38746;DHT22;24488;0.000;0.000;2022-08-03T16:04:11;23.70;51.90
38746;DHT22;24488;0.000;0.000;2022-08-03T16:06:36;23.70;51.90
38746;DHT22;24488;0.000;0.000;2022-08-03T16:09:03;23.70;51.90
38746;DHT22;24488;0.000;0.000;2022-08-03T16:11:29;23.70;51.80
38746;DHT22;24488;0.000;0.000;2022-08-03T16:13:55;23.70;51.80
38746;DHT22;24488;0.000;0.000;2022-08-03T16:16:20;23.70;51.80
38746;DHT22;24488;0.000;0.000;2022-08-03T16:18:46;23.70;51.80
38746;DHT22;24488;0.000;0.000;2022-08-03T16:21:11;23.70;51.80
38746;DHT22;24488;0.000;0.000;2022-08-03T16:23:38;23.70;51.40
38746;DHT22;24488;0.000;0.000;2022-08-03T16:26:04;23.70;51.80
38746;DHT22;24488;0.000;0.000;2022-08-03T16:28:30;23.70;51.80
38746;DHT22;24488;0.000;0.000;2022-08-03T16:30:58;23.70;51.80
38746;DHT22;24488;0.000;0.000;2022-08-03T16:33:23;23.70;51.80
38746;DHT22;24488;0.000;0.000;2022-08-03T16:35:49;23.70;51.80
38746;DHT22;24488;0.000;0.000;2022-08-03T16:38:15;23.70;51.80